sensor_id;sensor_type;location;lat;lon;timestamp;pressure;altitude;pressure_sealevel;temperature;humidity
28004;BME280;15330;51.234;6.754;2022-07-11T00:01:02;101900.25;;;18.55;64.91
28004;BME280;15330;51.234;6.754;2022-07-11T00:03:28;101905.97;;;18.45;65.30
28004;BME280;15330;51.234;6.754;2022-07-11T00:05:53;101901.56;;;18.59;64.79
28004;BME280;15330;51.234;6.754;2022-07-11T00:08:18;101900.72;;;18.58;65.06
28004;BME280;15330;51.234;6.754;2022-07-11T00:10:44;101902.63;;;18.58;64.96
28004;BME280;15330;51.234;6.754;2022-07-11T00:13:12;101905.41;;;18.64;64.93
28004;BME280;15330;51.234;6.754;2022-07-11T00:15:37;101893.91;;;18.62;65.01
28004;BME280;15330;51.234;6.754;2022-07-11T00:18:02;101902.50;;;18.66;64.84
28004;BME280;15330;51.234;6.754;2022-07-11T00:20:28;101895.31;;;18.58;65.48
28004;BME280;15330;51.234;6.754;2022-07-11T00:22:54;101893.72;;;18.64;65.08
28004;BME280;15330;51.234;6.754;2022-07-11T00:25:19;101898.97;;;18.65;65.24
28004;BME280;15330;51.234;6.754;2022-07-11T00:27:45;101899.06;;;18.57;65.59
28004;BME280;15330;51.234;6.754;2022-07-11T00:30:11;101900.34;;;18.47;66.07
28004;BME280;15330;51.234;6.754;2022-07-11T00:32:36;101891.13;;;18.26;66.90
28004;BME280;15330;51.234;6.754;2022-07-11T00:35:02;101889.22;;;18.42;66.41
28004;BME280;15330;51.234;6.754;2022-07-11T00:37:28;101892.03;;;18.33;66.72
28004;BME280;15330;51.234;6.754;2022-07-11T00:39:53;101883.91;;;18.33;66.85
28004;BME280;15330;51.234;6.754;2022-07-11T00:42:18;101892.03;;;18.33;66.90
28004;BME280;15330;51.234;6.754;2022-07-11T00:44:44;101888.03;;;18.29;67.07
28004;BME280;15330;51.234;6.754;2022-07-11T00:47:09;101888.13;;;18.21;67.21
28004;BME280;15330;51.234;6.754;2022-07-11T00:49:34;101891.50;;;18.23;67.29
28004;BME280;15330;51.234;6.754;2022-07-11T00:52:00;101887.47;;;18.19;67.49
28004;BME280;15330;51.234;6.754;2022-07-11T00:54:26;101885.78;;;18.18;67.51
28004;BME280;15330;51.234;6.754;2022-07-11T00:56:53;101887.56;;;18.11;68.01
28004;BME280;15330;51.234;6.754;2022-07-11T00:59:18;101882.91;;;18.05;68.19
28004;BME280;15330;51.234;6.754;2022-07-11T01:01:44;101881.31;;;17.96;68.63
28004;BME280;15330;51.234;6.754;2022-07-11T01:04:10;101886.34;;;17.84;69.04
28004;BME280;15330;51.234;6.754;2022-07-11T01:06:35;101881.19;;;17.89;68.90
28004;BME280;15330;51.234;6.754;2022-07-11T01:09:01;101885.78;;;18.04;68.54
28004;BME280;15330;51.234;6.754;2022-07-11T01:11:27;101880.00;;;17.92;68.74
28004;BME280;15330;51.234;6.754;2022-07-11T01:13:53;101876.91;;;17.95;68.67
28004;BME280;15330;51.234;6.754;2022-07-11T01:16:20;101881.75;;;17.85;69.16
28004;BME280;15330;51.234;6.754;2022-07-11T01:18:52;101879.13;;;17.77;69.58
28004;BME280;15330;51.234;6.754;2022-07-11T01:23:51;101880.38;;;18.04;68.30
28004;BME280;15330;51.234;6.754;2022-07-11T01:26:17;101870.09;;;17.99;68.42
28004;BME280;15330;51.234;6.754;2022-07-11T01:28:44;101884.84;;;17.82;69.34
28004;BME280;15330;51.234;6.754;2022-07-11T01:31:10;101881.28;;;17.81;69.25
28004;BME280;15330;51.234;6.754;2022-07-11T01:33:36;101886.88;;;17.57;70.30
28004;BME280;15330;51.234;6.754;2022-07-11T01:36:01;101882.03;;;17.75;69.57
28004;BME280;15330;51.234;6.754;2022-07-11T01:38:27;101879.97;;;17.77;69.39
28004;BME280;15330;51.234;6.754;2022-07-11T01:40:53;101884.00;;;17.81;69.28
28004;BME280;15330;51.234;6.754;2022-07-11T01:43:19;101878.59;;;17.58;70.19
28004;BME280;15330;51.234;6.754;2022-07-11T01:45:44;101876.91;;;17.57;70.06
28004;BME280;15330;51.234;6.754;2022-07-11T01:48:10;101872.25;;;17.51;70.25
28004;BME280;15330;51.234;6.754;2022-07-11T01:50:35;101866.81;;;17.51;70.28
28004;BME280;15330;51.234;6.754;2022-07-11T01:53:00;101873.25;;;17.50;70.24
28004;BME280;15330;51.234;6.754;2022-07-11T01:55:27;101875.72;;;17.60;69.75
28004;BME280;15330;51.234;6.754;2022-07-11T01:57:52;101871.88;;;17.54;70.18
28004;BME280;15330;51.234;6.754;2022-07-11T02:00:18;101869.97;;;17.63;69.57
28004;BME280;15330;51.234;6.754;2022-07-11T02:02:46;101870.47;;;17.58;69.91
28004;BME280;15330;51.234;6.754;2022-07-11T02:05:11;101872.69;;;17.55;70.08
28004;BME280;15330;51.234;6.754;2022-07-11T02:07:37;101878.78;;;17.57;70.00
28004;BME280;15330;51.234;6.754;2022-07-11T02:10:21;101874.28;;;17.49;70.56
28004;BME280;15330;51.234;6.754;2022-07-11T02:12:49;101879.28;;;17.38;70.99
28004;BME280;15330;51.234;6.754;2022-07-11T02:15:15;101876.03;;;17.42;70.62
28004;BME280;15330;51.234;6.754;2022-07-11T02:17:40;101873.84;;;17.23;71.61
28004;BME280;15330;51.234;6.754;2022-07-11T02:20:07;101866.34;;;17.25;71.39
28004;BME280;15330;51.234;6.754;2022-07-11T02:22:32;101869.25;;;17.23;71.42
28004;BME280;15330;51.234;6.754;2022-07-11T02:24:59;101881.28;;;17.21;71.66
28004;BME280;15330;51.234;6.754;2022-07-11T02:27:24;101881.81;;;17.16;71.94
28004;BME280;15330;51.234;6.754;2022-07-11T02:29:49;101874.00;;;17.21;71.45
28004;BME280;15330;51.234;6.754;2022-07-11T02:32:15;101881.16;;;17.14;71.67
28004;BME280;15330;51.234;6.754;2022-07-11T02:34:40;101880.97;;;17.16;71.85
28004;BME280;15330;51.234;6.754;2022-07-11T02:37:05;101873.53;;;17.18;71.66
28004;BME280;15330;51.234;6.754;2022-07-11T02:39:31;101875.88;;;17.21;71.66
28004;BME280;15330;51.234;6.754;2022-07-11T02:41:56;101871.75;;;17.25;71.43
28004;BME280;15330;51.234;6.754;2022-07-11T02:44:22;101874.84;;;17.22;71.62
28004;BME280;15330;51.234;6.754;2022-07-11T02:46:47;101870.47;;;17.21;71.66
28004;BME280;15330;51.234;6.754;2022-07-11T02:49:13;101874.47;;;17.25;71.49
28004;BME280;15330;51.234;6.754;2022-07-11T02:51:38;101877.75;;;17.20;71.64
28004;BME280;15330;51.234;6.754;2022-07-11T02:54:04;101872.84;;;17.16;72.00
28004;BME280;15330;51.234;6.754;2022-07-11T02:56:29;101878.09;;;17.17;71.65
28004;BME280;15330;51.234;6.754;2022-07-11T02:58:54;101877.25;;;17.17;72.04
28004;BME280;15330;51.234;6.754;2022-07-11T03:01:20;101876.41;;;17.16;72.08
28004;BME280;15330;51.234;6.754;2022-07-11T03:03:45;101876.81;;;17.05;72.63
28004;BME280;15330;51.234;6.754;2022-07-11T03:06:10;101874.53;;;17.17;72.20
28004;BME280;15330;51.234;6.754;2022-07-11T03:08:37;101876.22;;;17.18;72.08
28004;BME280;15330;51.234;6.754;2022-07-11T03:11:02;101874.66;;;17.23;72.40
28004;BME280;15330;51.234;6.754;2022-07-11T03:13:28;101880.44;;;17.20;72.75
28004;BME280;15330;51.234;6.754;2022-07-11T03:15:53;101881.94;;;17.23;72.95
28004;BME280;15330;51.234;6.754;2022-07-11T03:18:18;101883.38;;;17.11;73.33
28004;BME280;15330;51.234;6.754;2022-07-11T03:20:44;101880.44;;;17.20;73.11
28004;BME280;15330;51.234;6.754;2022-07-11T03:23:09;101884.94;;;17.28;72.50
28004;BME280;15330;51.234;6.754;2022-07-11T03:25:35;101882.34;;;17.35;72.29
28004;BME280;15330;51.234;6.754;2022-07-11T03:28:01;101882.22;;;17.28;72.79
28004;BME280;15330;51.234;6.754;2022-07-11T03:30:26;101875.69;;;17.22;73.10
28004;BME280;15330;51.234;6.754;2022-07-11T03:32:51;101880.19;;;17.30;72.70
28004;BME280;15330;51.234;6.754;2022-07-11T03:35:17;101879.47;;;17.36;72.52
28004;BME280;15330;51.234;6.754;2022-07-11T03:38:01;101888.53;;;17.43;72.31
28004;BME280;15330;51.234;6.754;2022-07-11T03:40:26;101892.47;;;17.55;71.85
28004;BME280;15330;51.234;6.754;2022-07-11T03:42:52;101896.69;;;17.58;71.72
28004;BME280;15330;51.234;6.754;2022-07-11T03:45:17;101869.13;;;17.40;72.10
28004;BME280;15330;51.234;6.754;2022-07-11T03:47:43;101894.50;;;17.39;72.42
28004;BME280;15330;51.234;6.754;2022-07-11T03:50:09;101891.53;;;17.48;72.05
28004;BME280;15330;51.234;6.754;2022-07-11T03:52:34;101895.50;;;17.60;71.69
28004;BME280;15330;51.234;6.754;2022-07-11T03:54:59;101899.75;;;17.55;71.56
28004;BME280;15330;51.234;6.754;2022-07-11T03:57:25;101892.28;;;17.57;71.40
28004;BME280;15330;51.234;6.754;2022-07-11T03:59:50;101894.53;;;17.53;71.81
28004;BME280;15330;51.234;6.754;2022-07-11T04:02:15;101889.31;;;17.52;71.74
28004;BME280;15330;51.234;6.754;2022-07-11T04:04:41;101890.44;;;17.57;71.07
28004;BME280;15330;51.234;6.754;2022-07-11T04:07:07;101889.06;;;17.61;71.26
28004;BME280;15330;51.234;6.754;2022-07-11T04:09:32;101900.91;;;17.60;71.75
28004;BME280;15330;51.234;6.754;2022-07-11T04:11:57;101888.72;;;17.65;71.35
28004;BME280;15330;51.234;6.754;2022-07-11T04:14:23;101882.31;;;17.80;70.40
28004;BME280;15330;51.234;6.754;2022-07-11T04:16:49;101879.06;;;17.85;70.58
28004;BME280;15330;51.234;6.754;2022-07-11T04:19:14;101881.00;;;17.91;70.52
28004;BME280;15330;51.234;6.754;2022-07-11T04:21:40;101885.41;;;17.92;70.46
28004;BME280;15330;51.234;6.754;2022-07-11T04:24:05;101900.56;;;17.64;71.91
28004;BME280;15330;51.234;6.754;2022-07-11T04:26:31;101899.75;;;17.78;71.54
28004;BME280;15330;51.234;6.754;2022-07-11T04:28:56;101903.22;;;17.86;71.28
28004;BME280;15330;51.234;6.754;2022-07-11T04:31:21;101897.56;;;17.96;70.78
28004;BME280;15330;51.234;6.754;2022-07-11T04:33:47;101907.19;;;17.76;71.87
28004;BME280;15330;51.234;6.754;2022-07-11T04:36:12;101902.53;;;17.70;71.98
28004;BME280;15330;51.234;6.754;2022-07-11T04:38:37;101899.88;;;17.84;70.89
28004;BME280;15330;51.234;6.754;2022-07-11T04:41:03;101878.53;;;17.67;70.83
28004;BME280;15330;51.234;6.754;2022-07-11T04:43:28;101905.06;;;17.48;71.16
28004;BME280;15330;51.234;6.754;2022-07-11T04:45:54;101893.31;;;17.64;70.38
28004;BME280;15330;51.234;6.754;2022-07-11T04:48:19;101887.34;;;17.83;69.90
28004;BME280;15330;51.234;6.754;2022-07-11T04:50:45;101905.16;;;17.78;70.06
28004;BME280;15330;51.234;6.754;2022-07-11T04:53:11;101904.91;;;17.87;70.01
28004;BME280;15330;51.234;6.754;2022-07-11T04:55:37;101888.16;;;17.69;70.14
28004;BME280;15330;51.234;6.754;2022-07-11T04:58:06;101904.13;;;17.56;70.48
28004;BME280;15330;51.234;6.754;2022-07-11T05:00:31;101909.97;;;17.45;70.70
28004;BME280;15330;51.234;6.754;2022-07-11T05:02:57;101912.53;;;17.69;69.95
28004;BME280;15330;51.234;6.754;2022-07-11T05:05:22;101917.88;;;17.54;70.37
28004;BME280;15330;51.234;6.754;2022-07-11T05:07:49;101917.38;;;17.51;70.34
28004;BME280;15330;51.234;6.754;2022-07-11T05:10:14;101910.41;;;17.56;70.11
28004;BME280;15330;51.234;6.754;2022-07-11T05:12:40;101923.91;;;17.65;69.79
28004;BME280;15330;51.234;6.754;2022-07-11T05:15:06;101917.84;;;17.63;69.82
28004;BME280;15330;51.234;6.754;2022-07-11T05:17:31;101919.31;;;17.65;69.87
28004;BME280;15330;51.234;6.754;2022-07-11T05:19:57;101915.13;;;17.77;69.36
28004;BME280;15330;51.234;6.754;2022-07-11T05:22:22;101919.25;;;17.73;69.37
28004;BME280;15330;51.234;6.754;2022-07-11T05:24:47;101920.19;;;17.57;69.46
28004;BME280;15330;51.234;6.754;2022-07-11T05:27:13;101919.66;;;17.62;69.45
28004;BME280;15330;51.234;6.754;2022-07-11T05:29:38;101925.56;;;17.66;69.36
28004;BME280;15330;51.234;6.754;2022-07-11T05:32:04;101938.22;;;17.88;68.67
28004;BME280;15330;51.234;6.754;2022-07-11T05:34:29;101933.94;;;17.93;68.40
28004;BME280;15330;51.234;6.754;2022-07-11T05:36:55;101934.03;;;17.85;68.53
28004;BME280;15330;51.234;6.754;2022-07-11T05:39:20;101940.47;;;17.99;68.31
28004;BME280;15330;51.234;6.754;2022-07-11T05:41:45;101930.75;;;17.90;68.34
28004;BME280;15330;51.234;6.754;2022-07-11T05:44:11;101936.78;;;18.15;68.53
28004;BME280;15330;51.234;6.754;2022-07-11T05:46:36;101937.41;;;18.02;68.02
28004;BME280;15330;51.234;6.754;2022-07-11T05:49:05;101939.75;;;18.05;68.04
28004;BME280;15330;51.234;6.754;2022-07-11T05:51:32;101946.38;;;18.03;68.07
28004;BME280;15330;51.234;6.754;2022-07-11T05:53:57;101949.31;;;17.78;68.78
28004;BME280;15330;51.234;6.754;2022-07-11T05:56:22;101943.78;;;17.72;69.36
28004;BME280;15330;51.234;6.754;2022-07-11T05:58:48;101947.25;;;17.80;68.75
28004;BME280;15330;51.234;6.754;2022-07-11T06:01:13;101950.41;;;17.69;69.23
28004;BME280;15330;51.234;6.754;2022-07-11T06:03:38;101946.97;;;17.52;70.07
28004;BME280;15330;51.234;6.754;2022-07-11T06:06:04;101955.34;;;17.43;70.68
28004;BME280;15330;51.234;6.754;2022-07-11T06:08:31;101939.94;;;17.20;71.30
28004;BME280;15330;51.234;6.754;2022-07-11T06:11:06;101953.28;;;17.68;70.06
28004;BME280;15330;51.234;6.754;2022-07-11T06:13:32;101945.16;;;17.68;70.11
28004;BME280;15330;51.234;6.754;2022-07-11T06:15:58;101949.22;;;17.72;70.18
28004;BME280;15330;51.234;6.754;2022-07-11T06:18:23;101950.41;;;17.69;70.45
28004;BME280;15330;51.234;6.754;2022-07-11T06:20:49;101953.16;;;17.38;71.48
28004;BME280;15330;51.234;6.754;2022-07-11T06:23:15;101964.44;;;17.73;70.54
28004;BME280;15330;51.234;6.754;2022-07-11T06:25:40;101966.84;;;17.59;70.86
28004;BME280;15330;51.234;6.754;2022-07-11T06:28:05;101975.50;;;17.55;71.28
28004;BME280;15330;51.234;6.754;2022-07-11T06:30:32;101966.25;;;17.49;71.50
28004;BME280;15330;51.234;6.754;2022-07-11T06:32:58;101973.84;;;17.54;71.82
28004;BME280;15330;51.234;6.754;2022-07-11T06:35:23;101965.91;;;17.52;71.64
28004;BME280;15330;51.234;6.754;2022-07-11T06:37:48;101956.16;;;17.66;71.11
28004;BME280;15330;51.234;6.754;2022-07-11T06:40:14;101957.97;;;17.51;72.02
28004;BME280;15330;51.234;6.754;2022-07-11T06:42:42;101963.31;;;17.59;71.90
28004;BME280;15330;51.234;6.754;2022-07-11T06:45:08;101961.72;;;17.73;71.63
28004;BME280;15330;51.234;6.754;2022-07-11T06:47:34;101968.63;;;17.75;71.37
28004;BME280;15330;51.234;6.754;2022-07-11T06:49:59;101951.84;;;17.80;71.04
28004;BME280;15330;51.234;6.754;2022-07-11T06:52:25;101965.94;;;17.90;70.88
28004;BME280;15330;51.234;6.754;2022-07-11T06:54:50;101942.25;;;17.92;70.57
28004;BME280;15330;51.234;6.754;2022-07-11T06:57:16;101963.13;;;18.06;70.38
28004;BME280;15330;51.234;6.754;2022-07-11T06:59:41;101957.59;;;18.14;70.15
28004;BME280;15330;51.234;6.754;2022-07-11T07:02:06;101967.28;;;18.09;70.63
28004;BME280;15330;51.234;6.754;2022-07-11T07:04:32;101966.44;;;18.08;70.53
28004;BME280;15330;51.234;6.754;2022-07-11T07:06:57;101963.13;;;18.06;70.59
28004;BME280;15330;51.234;6.754;2022-07-11T07:09:25;101958.81;;;18.12;70.24
28004;BME280;15330;51.234;6.754;2022-07-11T07:11:51;101969.72;;;18.04;70.93
28004;BME280;15330;51.234;6.754;2022-07-11T07:14:17;101975.69;;;17.99;71.02
28004;BME280;15330;51.234;6.754;2022-07-11T07:16:42;101972.00;;;18.15;70.56
28004;BME280;15330;51.234;6.754;2022-07-11T07:19:07;101972.38;;;17.89;71.12
28004;BME280;15330;51.234;6.754;2022-07-11T07:21:33;101978.22;;;18.01;70.71
28004;BME280;15330;51.234;6.754;2022-07-11T07:23:58;101984.88;;;17.75;71.32
28004;BME280;15330;51.234;6.754;2022-07-11T07:26:24;101973.22;;;17.89;70.93
28004;BME280;15330;51.234;6.754;2022-07-11T07:28:49;101969.41;;;17.84;71.28
28004;BME280;15330;51.234;6.754;2022-07-11T07:31:15;101973.47;;;18.03;70.79
28004;BME280;15330;51.234;6.754;2022-07-11T07:33:41;101973.19;;;18.12;70.28
28004;BME280;15330;51.234;6.754;2022-07-11T07:36:06;101974.53;;;18.16;70.17
28004;BME280;15330;51.234;6.754;2022-07-11T07:38:32;101974.56;;;18.08;70.93
28004;BME280;15330;51.234;6.754;2022-07-11T07:40:57;101964.22;;;18.12;71.63
28004;BME280;15330;51.234;6.754;2022-07-11T07:43:23;101978.69;;;18.19;71.35
28004;BME280;15330;51.234;6.754;2022-07-11T07:45:48;101983.38;;;18.40;70.45
28004;BME280;15330;51.234;6.754;2022-07-11T07:48:14;101972.78;;;18.01;71.76
28004;BME280;15330;51.234;6.754;2022-07-11T07:50:39;101970.69;;;18.25;71.70
28004;BME280;15330;51.234;6.754;2022-07-11T07:53:04;101971.72;;;18.54;70.47
28004;BME280;15330;51.234;6.754;2022-07-11T07:55:30;101963.16;;;18.65;69.52
28004;BME280;15330;51.234;6.754;2022-07-11T07:57:55;101965.09;;;18.56;69.68
28004;BME280;15330;51.234;6.754;2022-07-11T08:00:21;101967.44;;;18.89;69.02
28004;BME280;15330;51.234;6.754;2022-07-11T08:03:05;101965.09;;;18.86;68.44
28004;BME280;15330;51.234;6.754;2022-07-11T08:05:32;101960.16;;;18.75;68.79
28004;BME280;15330;51.234;6.754;2022-07-11T08:07:58;101964.00;;;18.65;69.07
28004;BME280;15330;51.234;6.754;2022-07-11T08:10:23;101967.06;;;19.28;67.59
28004;BME280;15330;51.234;6.754;2022-07-11T08:12:48;101963.19;;;19.37;67.14
28004;BME280;15330;51.234;6.754;2022-07-11T08:15:14;101970.69;;;19.77;65.92
28004;BME280;15330;51.234;6.754;2022-07-11T08:17:39;101970.09;;;19.39;66.13
28004;BME280;15330;51.234;6.754;2022-07-11T08:20:07;101960.00;;;19.48;66.42
28004;BME280;15330;51.234;6.754;2022-07-11T08:22:33;101956.91;;;20.00;65.20
28004;BME280;15330;51.234;6.754;2022-07-11T08:24:59;101946.06;;;20.07;64.39
28004;BME280;15330;51.234;6.754;2022-07-11T08:27:24;101951.28;;;20.64;62.58
28004;BME280;15330;51.234;6.754;2022-07-11T08:29:50;101958.03;;;20.81;62.79
28004;BME280;15330;51.234;6.754;2022-07-11T08:32:15;101944.47;;;20.47;62.62
28004;BME280;15330;51.234;6.754;2022-07-11T08:34:40;101961.78;;;20.11;63.67
28004;BME280;15330;51.234;6.754;2022-07-11T08:37:06;101975.47;;;19.54;65.05
28004;BME280;15330;51.234;6.754;2022-07-11T08:39:31;101979.97;;;19.62;65.25
28004;BME280;15330;51.234;6.754;2022-07-11T08:41:57;101973.03;;;19.59;64.83
28004;BME280;15330;51.234;6.754;2022-07-11T08:44:24;101982.88;;;19.82;64.70
28004;BME280;15330;51.234;6.754;2022-07-11T08:46:52;101977.44;;;19.24;66.26
28004;BME280;15330;51.234;6.754;2022-07-11T08:49:18;101975.84;;;19.30;65.97
28004;BME280;15330;51.234;6.754;2022-07-11T08:51:44;101981.00;;;19.25;66.33
28004;BME280;15330;51.234;6.754;2022-07-11T08:54:11;101975.72;;;19.38;66.34
28004;BME280;15330;51.234;6.754;2022-07-11T08:56:36;101990.00;;;19.47;66.23
28004;BME280;15330;51.234;6.754;2022-07-11T08:59:03;101991.47;;;19.28;66.39
28004;BME280;15330;51.234;6.754;2022-07-11T09:01:30;101988.19;;;18.96;67.33
28004;BME280;15330;51.234;6.754;2022-07-11T09:03:57;101973.84;;;19.02;66.94
28004;BME280;15330;51.234;6.754;2022-07-11T09:06:22;101973.78;;;18.81;67.12
28004;BME280;15330;51.234;6.754;2022-07-11T09:08:48;101990.00;;;19.11;67.14
28004;BME280;15330;51.234;6.754;2022-07-11T09:11:13;101984.78;;;19.09;67.13
28004;BME280;15330;51.234;6.754;2022-07-11T09:13:39;101976.94;;;19.35;66.25
28004;BME280;15330;51.234;6.754;2022-07-11T09:16:06;101992.06;;;19.44;66.16
28004;BME280;15330;51.234;6.754;2022-07-11T09:21:07;101984.09;;;19.43;65.56
28004;BME280;15330;51.234;6.754;2022-07-11T09:23:54;101987.97;;;19.49;65.43
28004;BME280;15330;51.234;6.754;2022-07-11T09:26:41;101983.53;;;19.48;65.75
28004;BME280;15330;51.234;6.754;2022-07-11T09:29:13;101982.03;;;19.60;65.01
28004;BME280;15330;51.234;6.754;2022-07-11T09:31:43;101978.50;;;19.87;65.03
28004;BME280;15330;51.234;6.754;2022-07-11T09:34:17;101977.06;;;20.12;63.44
28004;BME280;15330;51.234;6.754;2022-07-11T09:39:14;101970.56;;;20.35;62.99
28004;BME280;15330;51.234;6.754;2022-07-11T09:41:40;101966.84;;;20.42;62.47
28004;BME280;15330;51.234;6.754;2022-07-11T09:44:17;101966.47;;;20.24;62.94
28004;BME280;15330;51.234;6.754;2022-07-11T09:46:48;101973.41;;;19.56;64.26
28004;BME280;15330;51.234;6.754;2022-07-11T09:49:15;101967.69;;;19.94;63.82
28004;BME280;15330;51.234;6.754;2022-07-11T09:51:42;101966.88;;;19.29;65.31
28004;BME280;15330;51.234;6.754;2022-07-11T09:54:09;101976.31;;;19.55;64.89
28004;BME280;15330;51.234;6.754;2022-07-11T09:56:46;101976.50;;;19.74;64.37
28004;BME280;15330;51.234;6.754;2022-07-11T09:59:17;101966.63;;;19.88;63.78
28004;BME280;15330;51.234;6.754;2022-07-11T10:01:44;101971.59;;;19.63;64.82
28004;BME280;15330;51.234;6.754;2022-07-11T10:04:10;101971.84;;;19.90;64.05
28004;BME280;15330;51.234;6.754;2022-07-11T10:06:37;101970.34;;;20.15;63.58
28004;BME280;15330;51.234;6.754;2022-07-11T10:09:03;101968.44;;;20.09;63.14
28004;BME280;15330;51.234;6.754;2022-07-11T10:11:31;101961.97;;;20.38;62.18
28004;BME280;15330;51.234;6.754;2022-07-11T10:13:58;101955.16;;;20.48;61.94
28004;BME280;15330;51.234;6.754;2022-07-11T10:16:32;101964.97;;;20.43;61.87
28004;BME280;15330;51.234;6.754;2022-07-11T10:19:21;101965.34;;;20.74;61.98
28004;BME280;15330;51.234;6.754;2022-07-11T10:24:34;101968.91;;;20.81;61.56
28004;BME280;15330;51.234;6.754;2022-07-11T10:27:23;101967.31;;;20.52;61.75
28004;BME280;15330;51.234;6.754;2022-07-11T10:29:52;101972.78;;;20.31;61.52
28004;BME280;15330;51.234;6.754;2022-07-11T10:32:18;101976.66;;;20.43;61.86
28004;BME280;15330;51.234;6.754;2022-07-11T10:35:09;101981.69;;;20.46;62.19
28004;BME280;15330;51.234;6.754;2022-07-11T10:37:48;101984.31;;;20.33;62.20
28004;BME280;15330;51.234;6.754;2022-07-11T10:40:14;101981.53;;;20.27;62.54
28004;BME280;15330;51.234;6.754;2022-07-11T10:42:41;101995.53;;;20.24;62.85
28004;BME280;15330;51.234;6.754;2022-07-11T10:45:09;101998.63;;;20.21;61.98
28004;BME280;15330;51.234;6.754;2022-07-11T10:50:22;101987.75;;;20.42;62.48
28004;BME280;15330;51.234;6.754;2022-07-11T10:52:55;101995.88;;;20.14;63.35
28004;BME280;15330;51.234;6.754;2022-07-11T10:55:42;101995.19;;;20.33;62.84
28004;BME280;15330;51.234;6.754;2022-07-11T11:01:08;101986.97;;;20.27;61.68
28004;BME280;15330;51.234;6.754;2022-07-11T11:03:37;101995.94;;;20.27;62.67
28004;BME280;15330;51.234;6.754;2022-07-11T11:06:03;101980.81;;;20.39;61.91
28004;BME280;15330;51.234;6.754;2022-07-11T11:10:56;101996.19;;;20.54;61.53
28004;BME280;15330;51.234;6.754;2022-07-11T11:13:22;101998.53;;;20.63;61.62
28004;BME280;15330;51.234;6.754;2022-07-11T11:23:23;101991.69;;;20.39;61.91
28004;BME280;15330;51.234;6.754;2022-07-11T11:25:49;101999.72;;;20.26;61.99
28004;BME280;15330;51.234;6.754;2022-07-11T11:28:20;101994.41;;;20.39;61.73
28004;BME280;15330;51.234;6.754;2022-07-11T11:30:56;101990.31;;;20.29;62.29
28004;BME280;15330;51.234;6.754;2022-07-11T11:33:25;101990.28;;;20.22;62.31
28004;BME280;15330;51.234;6.754;2022-07-11T11:38:25;101997.44;;;20.30;61.93
28004;BME280;15330;51.234;6.754;2022-07-11T11:40:50;101990.34;;;20.01;62.51
28004;BME280;15330;51.234;6.754;2022-07-11T11:43:22;101991.75;;;20.25;61.89
28004;BME280;15330;51.234;6.754;2022-07-11T11:45:51;101997.38;;;20.44;61.97
28004;BME280;15330;51.234;6.754;2022-07-11T11:51:05;101991.09;;;20.44;61.84
28004;BME280;15330;51.234;6.754;2022-07-11T11:53:57;101986.94;;;20.48;61.80
28004;BME280;15330;51.234;6.754;2022-07-11T11:56:26;101986.09;;;20.47;61.67
28004;BME280;15330;51.234;6.754;2022-07-11T11:58:56;101989.00;;;20.46;62.33
28004;BME280;15330;51.234;6.754;2022-07-11T12:01:27;101986.94;;;20.48;62.40
28004;BME280;15330;51.234;6.754;2022-07-11T12:04:07;101991.91;;;20.79;61.24
28004;BME280;15330;51.234;6.754;2022-07-11T12:06:36;101992.53;;;20.74;61.17
28004;BME280;15330;51.234;6.754;2022-07-11T12:09:04;101984.50;;;20.66;61.52
28004;BME280;15330;51.234;6.754;2022-07-11T12:11:30;101980.97;;;20.66;61.31
28004;BME280;15330;51.234;6.754;2022-07-11T12:13:57;101980.47;;;20.21;62.41
28004;BME280;15330;51.234;6.754;2022-07-11T12:16:25;101987.41;;;20.30;62.20
28004;BME280;15330;51.234;6.754;2022-07-11T12:19:15;101980.19;;;20.78;61.15
28004;BME280;15330;51.234;6.754;2022-07-11T12:21:45;101978.97;;;20.87;60.79
28004;BME280;15330;51.234;6.754;2022-07-11T12:24:17;101984.28;;;21.02;61.03
28004;BME280;15330;51.234;6.754;2022-07-11T12:26:43;101973.94;;;21.26;60.65
28004;BME280;15330;51.234;6.754;2022-07-11T12:29:11;101974.97;;;21.24;59.85
28004;BME280;15330;51.234;6.754;2022-07-11T12:34:16;101978.13;;;21.41;59.52
28004;BME280;15330;51.234;6.754;2022-07-11T12:36:42;101983.78;;;21.27;59.49
28004;BME280;15330;51.234;6.754;2022-07-11T12:39:08;101983.81;;;20.92;60.30
28004;BME280;15330;51.234;6.754;2022-07-11T12:41:34;101977.16;;;21.08;60.21
28004;BME280;15330;51.234;6.754;2022-07-11T12:44:00;101975.50;;;21.07;60.02
28004;BME280;15330;51.234;6.754;2022-07-11T12:46:44;101970.88;;;21.01;60.44
28004;BME280;15330;51.234;6.754;2022-07-11T12:49:13;101958.47;;;20.85;60.71
28004;BME280;15330;51.234;6.754;2022-07-11T12:51:41;101969.38;;;20.98;60.48
28004;BME280;15330;51.234;6.754;2022-07-11T12:54:11;101971.06;;;20.99;60.85
28004;BME280;15330;51.234;6.754;2022-07-11T12:56:38;101963.34;;;21.09;60.35
28004;BME280;15330;51.234;6.754;2022-07-11T12:59:04;101965.66;;;21.06;61.18
28004;BME280;15330;51.234;6.754;2022-07-11T13:01:31;101968.59;;;21.11;60.95
28004;BME280;15330;51.234;6.754;2022-07-11T13:03:57;101968.66;;;21.17;60.98
28004;BME280;15330;51.234;6.754;2022-07-11T13:06:23;101970.47;;;21.10;61.20
28004;BME280;15330;51.234;6.754;2022-07-11T13:09:08;101975.06;;;21.03;61.12
28004;BME280;15330;51.234;6.754;2022-07-11T13:11:34;101979.69;;;21.09;61.18
28004;BME280;15330;51.234;6.754;2022-07-11T13:14:00;101974.81;;;20.98;61.01
28004;BME280;15330;51.234;6.754;2022-07-11T13:16:26;101967.25;;;20.87;61.30
28004;BME280;15330;51.234;6.754;2022-07-11T13:18:52;101976.34;;;20.60;62.43
28004;BME280;15330;51.234;6.754;2022-07-11T13:21:19;101975.53;;;20.66;62.09
28004;BME280;15330;51.234;6.754;2022-07-11T13:23:45;101980.06;;;20.52;62.85